sensor_id;sensor_type;location;lat;lon;timestamp;P1;durP1;ratioP1;P2;durP2;ratioP2
12956;SDS011;6543;48.836;10.092;2023-02-22T00:01:09;25.97;;;11.80;;
12956;SDS011;6543;48.836;10.092;2023-02-22T00:03:47;18.50;;;10.37;;
12956;SDS011;6543;48.836;10.092;2023-02-22T00:06:16;17.00;;;8.80;;
12956;SDS011;6543;48.836;10.092;2023-02-22T00:08:45;14.43;;;8.57;;
12956;SDS011;6543;48.836;10.092;2023-02-22T00:11:15;17.10;;;10.13;;
12956;SDS011;6543;48.836;10.092;2023-02-22T00:13:42;16.20;;;9.97;;
12956;SDS011;6543;48.836;10.092;2023-02-22T00:16:12;17.80;;;10.70;;
12956;SDS011;6543;48.836;10.092;2023-02-22T00:18:40;17.47;;;9.30;;
12956;SDS011;6543;48.836;10.092;2023-02-22T00:21:08;20.70;;;9.70;;
12956;SDS011;6543;48.836;10.092;2023-02-22T00:23:38;16.27;;;9.80;;
12956;SDS011;6543;48.836;10.092;2023-02-22T00:26:07;20.60;;;10.50;;
12956;SDS011;6543;48.836;10.092;2023-02-22T00:28:36;15.63;;;10.23;;
12956;SDS011;6543;48.836;10.092;2023-02-22T00:31:03;18.00;;;10.13;;
12956;SDS011;6543;48.836;10.092;2023-02-22T00:33:30;16.67;;;9.27;;
12956;SDS011;6543;48.836;10.092;2023-02-22T00:35:57;18.73;;;8.43;;
12956;SDS011;6543;48.836;10.092;2023-02-22T00:38:24;13.70;;;8.10;;
12956;SDS011;6543;48.836;10.092;2023-02-22T00:40:51;14.87;;;8.90;;
12956;SDS011;6543;48.836;10.092;2023-02-22T00:43:19;13.83;;;7.83;;
12956;SDS011;6543;48.836;10.092;2023-02-22T00:45:47;13.53;;;7.80;;
12956;SDS011;6543;48.836;10.092;2023-02-22T00:48:14;13.27;;;7.30;;
12956;SDS011;6543;48.836;10.092;2023-02-22T00:50:41;11.70;;;7.50;;
12956;SDS011;6543;48.836;10.092;2023-02-22T00:53:09;9.63;;;7.13;;
12956;SDS011;6543;48.836;10.092;2023-02-22T00:55:36;12.73;;;7.47;;
12956;SDS011;6543;48.836;10.092;2023-02-22T00:58:04;10.70;;;6.60;;
12956;SDS011;6543;48.836;10.092;2023-02-22T01:00:32;11.47;;;7.23;;
12956;SDS011;6543;48.836;10.092;2023-02-22T01:03:02;9.77;;;6.53;;
12956;SDS011;6543;48.836;10.092;2023-02-22T01:05:30;11.37;;;6.97;;
12956;SDS011;6543;48.836;10.092;2023-02-22T01:07:58;11.93;;;6.93;;
12956;SDS011;6543;48.836;10.092;2023-02-22T01:10:26;9.97;;;6.43;;
12956;SDS011;6543;48.836;10.092;2023-02-22T01:12:55;10.93;;;7.03;;
12956;SDS011;6543;48.836;10.092;2023-02-22T01:15:23;8.77;;;6.53;;
12956;SDS011;6543;48.836;10.092;2023-02-22T01:17:51;11.53;;;6.27;;
12956;SDS011;6543;48.836;10.092;2023-02-22T01:20:20;11.43;;;6.67;;
12956;SDS011;6543;48.836;10.092;2023-02-22T01:22:50;14.57;;;6.70;;
12956;SDS011;6543;48.836;10.092;2023-02-22T01:25:19;8.57;;;6.43;;
12956;SDS011;6543;48.836;10.092;2023-02-22T01:27:48;10.73;;;6.33;;
12956;SDS011;6543;48.836;10.092;2023-02-22T01:30:17;8.47;;;6.37;;
12956;SDS011;6543;48.836;10.092;2023-02-22T01:32:46;10.07;;;7.00;;
12956;SDS011;6543;48.836;10.092;2023-02-22T01:35:13;9.43;;;6.07;;
12956;SDS011;6543;48.836;10.092;2023-02-22T01:37:44;10.63;;;6.30;;
12956;SDS011;6543;48.836;10.092;2023-02-22T01:40:16;9.60;;;6.33;;
12956;SDS011;6543;48.836;10.092;2023-02-22T01:42:46;8.93;;;5.63;;
12956;SDS011;6543;48.836;10.092;2023-02-22T01:48:28;13.07;;;6.10;;
12956;SDS011;6543;48.836;10.092;2023-02-22T01:50:59;11.77;;;6.00;;
12956;SDS011;6543;48.836;10.092;2023-02-22T01:53:36;14.83;;;7.63;;
12956;SDS011;6543;48.836;10.092;2023-02-22T01:56:06;13.03;;;6.50;;
12956;SDS011;6543;48.836;10.092;2023-02-22T01:58:34;9.33;;;6.20;;
12956;SDS011;6543;48.836;10.092;2023-02-22T02:01:06;12.57;;;6.07;;
12956;SDS011;6543;48.836;10.092;2023-02-22T02:03:34;7.63;;;6.00;;
12956;SDS011;6543;48.836;10.092;2023-02-22T02:06:04;9.97;;;6.10;;
12956;SDS011;6543;48.836;10.092;2023-02-22T02:08:37;10.97;;;5.87;;
12956;SDS011;6543;48.836;10.092;2023-02-22T02:11:13;9.50;;;5.80;;
12956;SDS011;6543;48.836;10.092;2023-02-22T02:13:43;10.50;;;6.70;;
12956;SDS011;6543;48.836;10.092;2023-02-22T02:16:11;9.53;;;6.40;;
12956;SDS011;6543;48.836;10.092;2023-02-22T02:18:38;9.47;;;6.00;;
12956;SDS011;6543;48.836;10.092;2023-02-22T02:27:07;8.33;;;6.00;;
12956;SDS011;6543;48.836;10.092;2023-02-22T02:29:48;9.00;;;6.13;;
12956;SDS011;6543;48.836;10.092;2023-02-22T02:32:49;11.33;;;6.67;;
12956;SDS011;6543;48.836;10.092;2023-02-22T02:35:20;10.93;;;6.60;;
12956;SDS011;6543;48.836;10.092;2023-02-22T02:37:56;12.67;;;6.33;;
12956;SDS011;6543;48.836;10.092;2023-02-22T02:40:30;8.97;;;6.10;;
12956;SDS011;6543;48.836;10.092;2023-02-22T02:43:03;13.63;;;7.33;;
12956;SDS011;6543;48.836;10.092;2023-02-22T02:45:38;11.97;;;6.60;;
12956;SDS011;6543;48.836;10.092;2023-02-22T02:48:11;8.30;;;6.37;;
12956;SDS011;6543;48.836;10.092;2023-02-22T02:50:41;9.87;;;6.20;;
12956;SDS011;6543;48.836;10.092;2023-02-22T02:53:12;9.90;;;6.60;;
12956;SDS011;6543;48.836;10.092;2023-02-22T02:55:42;9.03;;;6.10;;
12956;SDS011;6543;48.836;10.092;2023-02-22T02:58:10;8.50;;;6.07;;
12956;SDS011;6543;48.836;10.092;2023-02-22T03:00:43;11.67;;;6.47;;
12956;SDS011;6543;48.836;10.092;2023-02-22T03:03:24;7.40;;;5.37;;
12956;SDS011;6543;48.836;10.092;2023-02-22T03:09:18;8.10;;;5.97;;
12956;SDS011;6543;48.836;10.092;2023-02-22T03:11:54;10.33;;;5.50;;
12956;SDS011;6543;48.836;10.092;2023-02-22T03:14:31;11.13;;;5.87;;
12956;SDS011;6543;48.836;10.092;2023-02-22T03:17:04;9.00;;;5.40;;
12956;SDS011;6543;48.836;10.092;2023-02-22T03:19:43;13.57;;;5.93;;
12956;SDS011;6543;48.836;10.092;2023-02-22T03:22:15;7.93;;;5.03;;
12956;SDS011;6543;48.836;10.092;2023-02-22T03:24:49;8.57;;;6.03;;
12956;SDS011;6543;48.836;10.092;2023-02-22T03:27:23;7.53;;;5.40;;
12956;SDS011;6543;48.836;10.092;2023-02-22T03:29:57;12.67;;;5.67;;
12956;SDS011;6543;48.836;10.092;2023-02-22T03:32:27;8.63;;;5.00;;
12956;SDS011;6543;48.836;10.092;2023-02-22T03:35:00;6.90;;;5.27;;
12956;SDS011;6543;48.836;10.092;2023-02-22T03:37:32;10.37;;;5.80;;
12956;SDS011;6543;48.836;10.092;2023-02-22T03:40:02;8.90;;;4.60;;
12956;SDS011;6543;48.836;10.092;2023-02-22T03:42:37;7.40;;;5.07;;
12956;SDS011;6543;48.836;10.092;2023-02-22T03:45:08;9.47;;;5.43;;
12956;SDS011;6543;48.836;10.092;2023-02-22T03:47:39;6.33;;;5.00;;
12956;SDS011;6543;48.836;10.092;2023-02-22T03:50:10;11.83;;;5.37;;
12956;SDS011;6543;48.836;10.092;2023-02-22T03:52:41;6.67;;;4.73;;
12956;SDS011;6543;48.836;10.092;2023-02-22T03:55:11;9.20;;;5.40;;
12956;SDS011;6543;48.836;10.092;2023-02-22T03:57:42;6.70;;;4.60;;
12956;SDS011;6543;48.836;10.092;2023-02-22T04:00:13;7.67;;;5.30;;
12956;SDS011;6543;48.836;10.092;2023-02-22T04:02:44;15.73;;;5.67;;
12956;SDS011;6543;48.836;10.092;2023-02-22T04:05:12;12.90;;;5.23;;
12956;SDS011;6543;48.836;10.092;2023-02-22T04:07:40;6.50;;;5.03;;
12956;SDS011;6543;48.836;10.092;2023-02-22T04:10:07;9.77;;;4.90;;
12956;SDS011;6543;48.836;10.092;2023-02-22T04:12:35;10.30;;;5.60;;
12956;SDS011;6543;48.836;10.092;2023-02-22T04:15:03;10.20;;;4.77;;
12956;SDS011;6543;48.836;10.092;2023-02-22T04:17:31;12.50;;;4.80;;
12956;SDS011;6543;48.836;10.092;2023-02-22T04:19:58;8.17;;;5.03;;
12956;SDS011;6543;48.836;10.092;2023-02-22T04:22:29;9.87;;;5.37;;
12956;SDS011;6543;48.836;10.092;2023-02-22T04:24:56;10.00;;;4.90;;
12956;SDS011;6543;48.836;10.092;2023-02-22T04:27:23;6.03;;;4.43;;
12956;SDS011;6543;48.836;10.092;2023-02-22T04:29:50;13.30;;;4.83;;
12956;SDS011;6543;48.836;10.092;2023-02-22T04:32:17;8.80;;;4.90;;
12956;SDS011;6543;48.836;10.092;2023-02-22T04:34:44;7.67;;;4.73;;
12956;SDS011;6543;48.836;10.092;2023-02-22T04:37:11;6.50;;;4.33;;
12956;SDS011;6543;48.836;10.092;2023-02-22T04:39:39;10.97;;;5.33;;
12956;SDS011;6543;48.836;10.092;2023-02-22T04:42:06;10.70;;;6.17;;
12956;SDS011;6543;48.836;10.092;2023-02-22T04:44:34;14.10;;;5.43;;
12956;SDS011;6543;48.836;10.092;2023-02-22T04:47:01;10.37;;;4.90;;
12956;SDS011;6543;48.836;10.092;2023-02-22T04:49:28;11.30;;;5.47;;
12956;SDS011;6543;48.836;10.092;2023-02-22T04:51:55;14.07;;;6.10;;
12956;SDS011;6543;48.836;10.092;2023-02-22T04:54:23;16.17;;;6.43;;
12956;SDS011;6543;48.836;10.092;2023-02-22T04:56:52;12.00;;;6.00;;
12956;SDS011;6543;48.836;10.092;2023-02-22T04:59:19;8.80;;;5.00;;
12956;SDS011;6543;48.836;10.092;2023-02-22T05:01:46;15.50;;;5.40;;
12956;SDS011;6543;48.836;10.092;2023-02-22T05:04:13;12.30;;;5.27;;
12956;SDS011;6543;48.836;10.092;2023-02-22T05:06:41;16.83;;;6.10;;
12956;SDS011;6543;48.836;10.092;2023-02-22T05:09:08;12.00;;;5.27;;
12956;SDS011;6543;48.836;10.092;2023-02-22T05:11:35;17.30;;;6.10;;
12956;SDS011;6543;48.836;10.092;2023-02-22T05:14:04;13.60;;;5.97;;
12956;SDS011;6543;48.836;10.092;2023-02-22T05:16:31;8.77;;;5.97;;
12956;SDS011;6543;48.836;10.092;2023-02-22T05:19:00;13.47;;;6.10;;
12956;SDS011;6543;48.836;10.092;2023-02-22T05:21:27;9.87;;;4.70;;
12956;SDS011;6543;48.836;10.092;2023-02-22T05:23:54;8.73;;;5.57;;
12956;SDS011;6543;48.836;10.092;2023-02-22T05:26:21;11.23;;;5.50;;
12956;SDS011;6543;48.836;10.092;2023-02-22T05:28:48;13.17;;;6.43;;
12956;SDS011;6543;48.836;10.092;2023-02-22T05:31:17;12.73;;;5.07;;
12956;SDS011;6543;48.836;10.092;2023-02-22T05:33:44;11.77;;;6.30;;
12956;SDS011;6543;48.836;10.092;2023-02-22T05:36:12;9.47;;;5.60;;
12956;SDS011;6543;48.836;10.092;2023-02-22T05:38:40;17.07;;;6.17;;
12956;SDS011;6543;48.836;10.092;2023-02-22T05:41:09;15.33;;;7.33;;
12956;SDS011;6543;48.836;10.092;2023-02-22T05:43:37;13.80;;;5.83;;
12956;SDS011;6543;48.836;10.092;2023-02-22T05:46:04;15.70;;;7.07;;
12956;SDS011;6543;48.836;10.092;2023-02-22T05:48:33;11.73;;;6.63;;
12956;SDS011;6543;48.836;10.092;2023-02-22T05:51:00;8.93;;;6.23;;
12956;SDS011;6543;48.836;10.092;2023-02-22T05:53:28;17.13;;;6.77;;
12956;SDS011;6543;48.836;10.092;2023-02-22T05:55:56;15.50;;;7.70;;
12956;SDS011;6543;48.836;10.092;2023-02-22T05:58:23;9.00;;;6.63;;
12956;SDS011;6543;48.836;10.092;2023-02-22T06:00:50;15.60;;;7.50;;
12956;SDS011;6543;48.836;10.092;2023-02-22T06:03:18;9.77;;;6.10;;
12956;SDS011;6543;48.836;10.092;2023-02-22T06:05:47;11.77;;;7.93;;
12956;SDS011;6543;48.836;10.092;2023-02-22T06:08:14;13.33;;;7.67;;
12956;SDS011;6543;48.836;10.092;2023-02-22T06:10:42;13.30;;;8.63;;
12956;SDS011;6543;48.836;10.092;2023-02-22T06:13:09;18.27;;;9.03;;
12956;SDS011;6543;48.836;10.092;2023-02-22T06:15:36;14.03;;;8.37;;
12956;SDS011;6543;48.836;10.092;2023-02-22T06:18:03;15.70;;;7.53;;
12956;SDS011;6543;48.836;10.092;2023-02-22T06:20:31;10.50;;;7.93;;
12956;SDS011;6543;48.836;10.092;2023-02-22T06:23:01;15.50;;;8.30;;
12956;SDS011;6543;48.836;10.092;2023-02-22T06:25:30;19.13;;;9.47;;
12956;SDS011;6543;48.836;10.092;2023-02-22T06:27:58;21.20;;;9.67;;
12956;SDS011;6543;48.836;10.092;2023-02-22T06:30:29;15.27;;;9.00;;
12956;SDS011;6543;48.836;10.092;2023-02-22T06:32:56;14.67;;;8.50;;
12956;SDS011;6543;48.836;10.092;2023-02-22T06:35:23;17.27;;;8.77;;
12956;SDS011;6543;48.836;10.092;2023-02-22T06:37:51;16.70;;;8.07;;
12956;SDS011;6543;48.836;10.092;2023-02-22T06:40:19;15.13;;;8.20;;
12956;SDS011;6543;48.836;10.092;2023-02-22T06:42:47;20.10;;;8.17;;
12956;SDS011;6543;48.836;10.092;2023-02-22T06:45:15;14.43;;;8.67;;
12956;SDS011;6543;48.836;10.092;2023-02-22T06:47:43;13.70;;;8.87;;
12956;SDS011;6543;48.836;10.092;2023-02-22T06:50:16;16.23;;;9.70;;
12956;SDS011;6543;48.836;10.092;2023-02-22T06:52:45;13.33;;;9.87;;
12956;SDS011;6543;48.836;10.092;2023-02-22T06:55:15;21.97;;;10.43;;
12956;SDS011;6543;48.836;10.092;2023-02-22T06:57:45;16.80;;;10.70;;
12956;SDS011;6543;48.836;10.092;2023-02-22T07:00:14;19.83;;;11.87;;
12956;SDS011;6543;48.836;10.092;2023-02-22T07:02:42;16.53;;;11.07;;
12956;SDS011;6543;48.836;10.092;2023-02-22T07:05:10;21.57;;;10.83;;
12956;SDS011;6543;48.836;10.092;2023-02-22T07:07:38;17.67;;;11.30;;
12956;SDS011;6543;48.836;10.092;2023-02-22T07:10:06;18.53;;;11.17;;
12956;SDS011;6543;48.836;10.092;2023-02-22T07:12:37;13.73;;;10.43;;
12956;SDS011;6543;48.836;10.092;2023-02-22T07:15:11;17.70;;;11.50;;
12956;SDS011;6543;48.836;10.092;2023-02-22T07:17:39;20.50;;;10.03;;
12956;SDS011;6543;48.836;10.092;2023-02-22T07:20:07;13.70;;;10.63;;
12956;SDS011;6543;48.836;10.092;2023-02-22T07:22:35;14.83;;;10.90;;
12956;SDS011;6543;48.836;10.092;2023-02-22T07:25:03;16.07;;;10.30;;
12956;SDS011;6543;48.836;10.092;2023-02-22T07:27:31;20.50;;;12.53;;
12956;SDS011;6543;48.836;10.092;2023-02-22T07:29:58;19.00;;;12.87;;
12956;SDS011;6543;48.836;10.092;2023-02-22T07:32:27;15.43;;;11.57;;
12956;SDS011;6543;48.836;10.092;2023-02-22T07:34:54;15.23;;;11.23;;
12956;SDS011;6543;48.836;10.092;2023-02-22T07:37:21;15.93;;;11.37;;
12956;SDS011;6543;48.836;10.092;2023-02-22T07:39:48;14.20;;;10.53;;
12956;SDS011;6543;48.836;10.092;2023-02-22T07:42:16;21.23;;;10.73;;
12956;SDS011;6543;48.836;10.092;2023-02-22T07:44:43;17.63;;;9.53;;
12956;SDS011;6543;48.836;10.092;2023-02-22T07:47:10;17.03;;;9.13;;
12956;SDS011;6543;48.836;10.092;2023-02-22T07:49:38;29.70;;;11.93;;
12956;SDS011;6543;48.836;10.092;2023-02-22T07:52:08;16.17;;;10.77;;
12956;SDS011;6543;48.836;10.092;2023-02-22T07:54:36;27.07;;;12.30;;
12956;SDS011;6543;48.836;10.092;2023-02-22T07:57:03;17.30;;;11.87;;
12956;SDS011;6543;48.836;10.092;2023-02-22T07:59:31;20.57;;;12.00;;
12956;SDS011;6543;48.836;10.092;2023-02-22T08:01:58;13.33;;;11.87;;
12956;SDS011;6543;48.836;10.092;2023-02-22T08:04:27;16.47;;;11.60;;
12956;SDS011;6543;48.836;10.092;2023-02-22T08:06:57;17.97;;;11.70;;
12956;SDS011;6543;48.836;10.092;2023-02-22T08:09:24;24.13;;;11.90;;
12956;SDS011;6543;48.836;10.092;2023-02-22T08:11:51;16.33;;;10.63;;
12956;SDS011;6543;48.836;10.092;2023-02-22T08:14:21;19.60;;;10.97;;
12956;SDS011;6543;48.836;10.092;2023-02-22T08:16:48;20.37;;;9.90;;
12956;SDS011;6543;48.836;10.092;2023-02-22T08:19:17;17.20;;;9.43;;
12956;SDS011;6543;48.836;10.092;2023-02-22T08:21:44;19.33;;;8.47;;
12956;SDS011;6543;48.836;10.092;2023-02-22T08:24:13;12.77;;;9.10;;
12956;SDS011;6543;48.836;10.092;2023-02-22T08:26:43;22.10;;;10.13;;
12956;SDS011;6543;48.836;10.092;2023-02-22T08:29:10;21.27;;;9.60;;
12956;SDS011;6543;48.836;10.092;2023-02-22T08:31:39;17.83;;;9.63;;
12956;SDS011;6543;48.836;10.092;2023-02-22T08:34:06;14.30;;;8.80;;
12956;SDS011;6543;48.836;10.092;2023-02-22T08:36:33;13.17;;;8.47;;
12956;SDS011;6543;48.836;10.092;2023-02-22T08:39:00;15.13;;;8.07;;
12956;SDS011;6543;48.836;10.092;2023-02-22T08:41:29;14.07;;;7.50;;
12956;SDS011;6543;48.836;10.092;2023-02-22T08:43:56;13.37;;;8.23;;
12956;SDS011;6543;48.836;10.092;2023-02-22T08:46:26;10.13;;;7.37;;
12956;SDS011;6543;48.836;10.092;2023-02-22T08:48:53;7.90;;;6.23;;
12956;SDS011;6543;48.836;10.092;2023-02-22T08:51:20;14.70;;;6.63;;
12956;SDS011;6543;48.836;10.092;2023-02-22T08:53:50;9.93;;;5.63;;
12956;SDS011;6543;48.836;10.092;2023-02-22T08:56:17;9.47;;;5.03;;
12956;SDS011;6543;48.836;10.092;2023-02-22T08:58:49;5.90;;;4.37;;
12956;SDS011;6543;48.836;10.092;2023-02-22T09:01:16;13.00;;;4.43;;
12956;SDS011;6543;48.836;10.092;2023-02-22T09:03:45;8.23;;;4.03;;
12956;SDS011;6543;48.836;10.092;2023-02-22T09:06:13;12.07;;;4.33;;
12956;SDS011;6543;48.836;10.092;2023-02-22T09:08:41;6.50;;;4.13;;
12956;SDS011;6543;48.836;10.092;2023-02-22T09:11:07;7.37;;;3.50;;
12956;SDS011;6543;48.836;10.092;2023-02-22T09:13:35;8.30;;;3.37;;
12956;SDS011;6543;48.836;10.092;2023-02-22T09:16:10;6.37;;;3.23;;
12956;SDS011;6543;48.836;10.092;2023-02-22T09:18:37;6.87;;;3.90;;
12956;SDS011;6543;48.836;10.092;2023-02-22T09:21:04;6.93;;;3.50;;
12956;SDS011;6543;48.836;10.092;2023-02-22T09:23:31;11.30;;;3.47;;
12956;SDS011;6543;48.836;10.092;2023-02-22T09:25:58;9.27;;;3.43;;
12956;SDS011;6543;48.836;10.092;2023-02-22T09:28:26;5.23;;;2.90;;
12956;SDS011;6543;48.836;10.092;2023-02-22T09:30:53;4.57;;;3.03;;
12956;SDS011;6543;48.836;10.092;2023-02-22T09:33:26;6.17;;;3.03;;
12956;SDS011;6543;48.836;10.092;2023-02-22T09:35:55;4.60;;;2.50;;
12956;SDS011;6543;48.836;10.092;2023-02-22T09:38:26;9.83;;;2.90;;
12956;SDS011;6543;48.836;10.092;2023-02-22T09:40:55;5.27;;;2.47;;
12956;SDS011;6543;48.836;10.092;2023-02-22T09:43:36;5.90;;;2.53;;
12956;SDS011;6543;48.836;10.092;2023-02-22T09:46:09;7.03;;;2.40;;
12956;SDS011;6543;48.836;10.092;2023-02-22T09:48:49;6.83;;;2.40;;
12956;SDS011;6543;48.836;10.092;2023-02-22T09:51:23;5.30;;;2.10;;
12956;SDS011;6543;48.836;10.092;2023-02-22T09:53:56;4.37;;;2.33;;
12956;SDS011;6543;48.836;10.092;2023-02-22T09:59:54;3.77;;;2.17;;
12956;SDS011;6543;48.836;10.092;2023-02-22T10:02:33;3.43;;;1.77;;
12956;SDS011;6543;48.836;10.092;2023-02-22T10:05:07;2.17;;;1.33;;
12956;SDS011;6543;48.836;10.092;2023-02-22T10:07:39;3.73;;;1.93;;
12956;SDS011;6543;48.836;10.092;2023-02-22T10:10:13;7.70;;;2.60;;
12956;SDS011;6543;48.836;10.092;2023-02-22T10:12:45;2.83;;;1.80;;
12956;SDS011;6543;48.836;10.092;2023-02-22T10:21:16;3.43;;;1.80;;
12956;SDS011;6543;48.836;10.092;2023-02-22T10:23:57;3.90;;;1.30;;
12956;SDS011;6543;48.836;10.092;2023-02-22T10:26:35;5.20;;;1.40;;
12956;SDS011;6543;48.836;10.092;2023-02-22T10:29:07;5.60;;;1.70;;
12956;SDS011;6543;48.836;10.092;2023-02-22T10:31:41;5.10;;;1.90;;
12956;SDS011;6543;48.836;10.092;2023-02-22T10:34:11;4.27;;;1.50;;
12956;SDS011;6543;48.836;10.092;2023-02-22T10:36:44;3.67;;;1.90;;
12956;SDS011;6543;48.836;10.092;2023-02-22T10:39:17;4.13;;;1.57;;
12956;SDS011;6543;48.836;10.092;2023-02-22T10:41:56;3.60;;;2.27;;
12956;SDS011;6543;48.836;10.092;2023-02-22T10:44:29;3.53;;;1.87;;
12956;SDS011;6543;48.836;10.092;2023-02-22T10:46:57;4.77;;;1.60;;
12956;SDS011;6543;48.836;10.092;2023-02-22T10:49:26;4.67;;;1.17;;
12956;SDS011;6543;48.836;10.092;2023-02-22T10:52:02;1.40;;;1.30;;
12956;SDS011;6543;48.836;10.092;2023-02-22T10:54:31;4.13;;;2.00;;
12956;SDS011;6543;48.836;10.092;2023-02-22T10:57:02;3.20;;;1.60;;
12956;SDS011;6543;48.836;10.092;2023-02-22T10:59:30;4.83;;;1.50;;
12956;SDS011;6543;48.836;10.092;2023-02-22T11:01:58;1.67;;;1.20;;
12956;SDS011;6543;48.836;10.092;2023-02-22T11:04:27;2.20;;;1.50;;
12956;SDS011;6543;48.836;10.092;2023-02-22T11:07:15;5.87;;;1.83;;
12956;SDS011;6543;48.836;10.092;2023-02-22T11:09:48;5.87;;;1.57;;
12956;SDS011;6543;48.836;10.092;2023-02-22T11:12:19;5.03;;;1.80;;
12956;SDS011;6543;48.836;10.092;2023-02-22T11:14:51;4.47;;;1.90;;
12956;SDS011;6543;48.836;10.092;2023-02-22T11:17:21;4.40;;;1.77;;
12956;SDS011;6543;48.836;10.092;2023-02-22T11:19:55;2.20;;;1.70;;
12956;SDS011;6543;48.836;10.092;2023-02-22T11:22:27;3.53;;;1.57;;
12956;SDS011;6543;48.836;10.092;2023-02-22T11:24:58;3.17;;;1.67;;
12956;SDS011;6543;48.836;10.092;2023-02-22T11:27:32;8.33;;;1.50;;
12956;SDS011;6543;48.836;10.092;2023-02-22T11:30:20;1.47;;;1.30;;
12956;SDS011;6543;48.836;10.092;2023-02-22T11:32:53;3.43;;;1.90;;
12956;SDS011;6543;48.836;10.092;2023-02-22T11:35:32;4.73;;;1.77;;
12956;SDS011;6543;48.836;10.092;2023-02-22T11:38:14;5.23;;;1.80;;
12956;SDS011;6543;48.836;10.092;2023-02-22T11:40:45;5.37;;;1.77;;
12956;SDS011;6543;48.836;10.092;2023-02-22T11:43:14;3.00;;;1.77;;
12956;SDS011;6543;48.836;10.092;2023-02-22T11:45:54;6.80;;;2.07;;
12956;SDS011;6543;48.836;10.092;2023-02-22T11:48:27;4.37;;;1.60;;
12956;SDS011;6543;48.836;10.092;2023-02-22T11:51:11;4.10;;;1.30;;
12956;SDS011;6543;48.836;10.092;2023-02-22T11:56:56;3.93;;;2.30;;
12956;SDS011;6543;48.836;10.092;2023-02-22T11:59:42;1.60;;;1.50;;
12956;SDS011;6543;48.836;10.092;2023-02-22T12:02:28;5.03;;;2.00;;
12956;SDS011;6543;48.836;10.092;2023-02-22T12:05:11;6.53;;;1.70;;
12956;SDS011;6543;48.836;10.092;2023-02-22T12:07:52;7.53;;;1.67;;
12956;SDS011;6543;48.836;10.092;2023-02-22T12:10:33;4.53;;;1.70;;
12956;SDS011;6543;48.836;10.092;2023-02-22T12:13:14;4.10;;;2.63;;
12956;SDS011;6543;48.836;10.092;2023-02-22T12:15:53;9.07;;;3.20;;
12956;SDS011;6543;48.836;10.092;2023-02-22T12:18:32;6.10;;;3.23;;
12956;SDS011;6543;48.836;10.092;2023-02-22T12:21:05;5.23;;;1.33;;
12956;SDS011;6543;48.836;10.092;2023-02-22T12:23:42;4.27;;;1.50;;
12956;SDS011;6543;48.836;10.092;2023-02-22T12:26:17;2.47;;;1.43;;
12956;SDS011;6543;48.836;10.092;2023-02-22T12:28:54;6.70;;;1.48;;
12956;SDS011;6543;48.836;10.092;2023-02-22T12:31:32;5.90;;;1.57;;
12956;SDS011;6543;48.836;10.092;2023-02-22T12:34:07;7.00;;;2.00;;
12956;SDS011;6543;48.836;10.092;2023-02-22T12:36:44;7.67;;;2.30;;
12956;SDS011;6543;48.836;10.092;2023-02-22T12:42:07;4.63;;;1.40;;
12956;SDS011;6543;48.836;10.092;2023-02-22T12:44:42;1.57;;;0.93;;
12956;SDS011;6543;48.836;10.092;2023-02-22T12:47:15;1.00;;;1.00;;
12956;SDS011;6543;48.836;10.092;2023-02-22T12:49:47;1.57;;;1.00;;
12956;SDS011;6543;48.836;10.092;2023-02-22T12:52:22;1.43;;;1.33;;
12956;SDS011;6543;48.836;10.092;2023-02-22T12:55:00;1.42;;;1.10;;
12956;SDS011;6543;48.836;10.092;2023-02-22T12:57:35;4.17;;;1.30;;
12956;SDS011;6543;48.836;10.092;2023-02-22T13:00:13;2.50;;;1.13;;
12956;SDS011;6543;48.836;10.092;2023-02-22T13:02:48;1.60;;;1.20;;
12956;SDS011;6543;48.836;10.092;2023-02-22T13:05:21;5.17;;;1.70;;
12956;SDS011;6543;48.836;10.092;2023-02-22T13:07:50;2.23;;;1.10;;
12956;SDS011;6543;48.836;10.092;2023-02-22T13:10:37;1.00;;;0.90;;
12956;SDS011;6543;48.836;10.092;2023-02-22T13:13:15;1.27;;;1.00;;
12956;SDS011;6543;48.836;10.092;2023-02-22T13:15:49;1.57;;;1.33;;
12956;SDS011;6543;48.836;10.092;2023-02-22T13:18:22;1.80;;;1.30;;
12956;SDS011;6543;48.836;10.092;2023-02-22T13:20:58;2.73;;;1.20;;
12956;SDS011;6543;48.836;10.092;2023-02-22T13:23:35;3.13;;;1.37;;
12956;SDS011;6543;48.836;10.092;2023-02-22T13:26:09;5.13;;;1.50;;
12956;SDS011;6543;48.836;10.092;2023-02-22T13:28:42;3.92;;;1.42;;
12956;SDS011;6543;48.836;10.092;2023-02-22T13:31:25;4.67;;;1.80;;
12956;SDS011;6543;48.836;10.092;2023-02-22T13:37:06;6.15;;;1.67;;
12956;SDS011;6543;48.836;10.092;2023-02-22T13:39:51;2.42;;;1.40;;
12956;SDS011;6543;48.836;10.092;2023-02-22T13:45:31;6.83;;;1.53;;
12956;SDS011;6543;48.836;10.092;2023-02-22T13:48:23;7.88;;;1.58;;
12956;SDS011;6543;48.836;10.092;2023-02-22T13:51:04;7.55;;;1.45;;
12956;SDS011;6543;48.836;10.092;2023-02-22T13:53:42;4.13;;;1.53;;
12956;SDS011;6543;48.836;10.092;2023-02-22T13:56:14;4.05;;;1.38;;
12956;SDS011;6543;48.836;10.092;2023-02-22T13:58:46;4.43;;;1.73;;
12956;SDS011;6543;48.836;10.092;2023-02-22T14:04:20;3.23;;;1.47;;
12956;SDS011;6543;48.836;10.092;2023-02-22T14:07:04;2.30;;;1.27;;
12956;SDS011;6543;48.836;10.092;2023-02-22T14:10:36;4.23;;;1.80;;
12956;SDS011;6543;48.836;10.092;2023-02-22T14:13:15;4.20;;;1.20;;
12956;SDS011;6543;48.836;10.092;2023-02-22T14:18:46;3.93;;;1.10;;
12956;SDS011;6543;48.836;10.092;2023-02-22T14:21:17;2.67;;;1.20;;
12956;SDS011;6543;48.836;10.092;2023-02-22T14:23:46;4.40;;;1.20;;
12956;SDS011;6543;48.836;10.092;2023-02-22T14:26:16;3.13;;;2.20;;
12956;SDS011;6543;48.836;10.092;2023-02-22T14:28:52;10.90;;;1.90;;
12956;SDS011;6543;48.836;10.092;2023-02-22T14:31:23;3.27;;;1.40;;
12956;SDS011;6543;48.836;10.092;2023-02-22T14:33:54;4.87;;;1.67;;
12956;SDS011;6543;48.836;10.092;2023-02-22T14:36:28;12.20;;;1.73;;
12956;SDS011;6543;48.836;10.092;2023-02-22T14:39:06;1.20;;;1.20;;
12956;SDS011;6543;48.836;10.092;2023-02-22T14:41:40;4.10;;;1.27;;
12956;SDS011;6543;48.836;10.092;2023-02-22T14:44:11;5.37;;;1.73;;
12956;SDS011;6543;48.836;10.092;2023-02-22T14:46:46;2.70;;;1.77;;
12956;SDS011;6543;48.836;10.092;2023-02-22T14:49:14;3.40;;;2.40;;
12956;SDS011;6543;48.836;10.092;2023-02-22T14:51:50;7.23;;;3.20;;
12956;SDS011;6543;48.836;10.092;2023-02-22T14:54:23;9.23;;;3.40;;
12956;SDS011;6543;48.836;10.092;2023-02-22T14:56:56;12.30;;;3.73;;
12956;SDS011;6543;48.836;10.092;2023-02-22T15:02:44;10.67;;;3.57;;
12956;SDS011;6543;48.836;10.092;2023-02-22T15:05:12;8.50;;;3.50;;
12956;SDS011;6543;48.836;10.092;2023-02-22T15:07:50;5.03;;;2.53;;
12956;SDS011;6543;48.836;10.092;2023-02-22T15:10:20;10.03;;;4.23;;
12956;SDS011;6543;48.836;10.092;2023-02-22T15:12:51;10.23;;;3.10;;
12956;SDS011;6543;48.836;10.092;2023-02-22T15:15:33;9.47;;;3.33;;
12956;SDS011;6543;48.836;10.092;2023-02-22T15:18:00;6.83;;;3.40;;
12956;SDS011;6543;48.836;10.092;2023-02-22T15:20:31;10.43;;;3.27;;
12956;SDS011;6543;48.836;10.092;2023-02-22T15:23:03;12.20;;;3.57;;
12956;SDS011;6543;48.836;10.092;2023-02-22T15:25:30;17.23;;;4.20;;
12956;SDS011;6543;48.836;10.092;2023-02-22T15:27:59;8.47;;;3.87;;
12956;SDS011;6543;48.836;10.092;2023-02-22T15:30:28;8.73;;;4.03;;
12956;SDS011;6543;48.836;10.092;2023-02-22T15:33:08;13.67;;;4.53;;
12956;SDS011;6543;48.836;10.092;2023-02-22T15:35:37;8.23;;;4.67;;
12956;SDS011;6543;48.836;10.092;2023-02-22T15:38:12;5.73;;;4.33;;
12956;SDS011;6543;48.836;10.092;2023-02-22T15:40:45;8.13;;;5.13;;
12956;SDS011;6543;48.836;10.092;2023-02-22T15:43:16;7.63;;;5.00;;
12956;SDS011;6543;48.836;10.092;2023-02-22T15:45:44;9.27;;;5.20;;
12956;SDS011;6543;48.836;10.092;2023-02-22T15:48:12;12.37;;;5.43;;